Aviation Digital Data Service (ADDS)

Output produced by METARs form (2310 UTC 15 August 2018)
found at http://www.aviationweather.gov/adds/metars/
 
EIME 152300Z 26012KT 9999 RA SCT006 SCT015 13/13 Q1009
TAF EIME 152000Z 1521/1606 23011KT 9999 SCT012 BKN040 
     TEMPO 1521/1601 -SHRA BKN010 BKN018CB 
     TEMPO 1600/1603 26015G25KT
       
EIKN 151900Z 25010KT 9999 FEW025 BKN050 12/12 Q1007 TEMPO 5000 -RA BKN010
TAF EIKN 152300Z 1600/1624 23012KT 9999 BKN025 
     TEMPO 1603/1618 -SHRA BKN014 
     PROB30 
     TEMPO 1604/1614 7000 SHRA BKN009 SCT018CB 
     BECMG 1606/1609 27014KT 
     PROB30 
     TEMPO 1609/1615 28015G25KT 
     BECMG 1621/1624 24009KT
       
EICK 152300Z 27009KT 9999 FEW016 BKN038 14/11 Q1011 NOSIG
TAF EICK 152300Z 1600/1624 26010KT 9999 FEW014 BKN030 
     PROB30 
     TEMPO 1600/1606 BKN014 
     BECMG 1609/1612 29015KT 
     PROB30 
     TEMPO 1610/1618 30016G26KT -SHRA BKN012 FEW018CB 
     BECMG 1622/1624 25008KT
       
EIDL 151830Z 25016KT 9999 BKN016 15/11 Q1005
EIDW 152300Z 26009KT 220V280 9999 -RA SCT008 SCT019 BKN023 13/12 Q1009 NOSIG
TAF COR EIDW 152304Z 1600/1624 27011KT 9999 BKN030 
     PROB30 
     TEMPO 1600/1602 7000 -SHRA BKN012 FEW018CB 
     BECMG 1601/1604 24013KT 
     PROB30 
     TEMPO 1609/1621 SHRA BKN012 SCT018CB 
     BECMG 1611/1614 27016KT 
     TEMPO 1611/1621 27016G28KT 
     BECMG 1618/1621 25010KT
       
EIKY 152000Z 25010KT 9999 SCT011 BKN022 BKN028 14/13 Q1010 RESHRA
EINN 152300Z 23009KT 210V270 9999 FEW018 BKN050 14/10 Q1010 NOSIG
TAF EINN 152300Z 1600/1624 25014KT 9999 FEW012 BKN030 
     TEMPO 1600/1618 -SHRA BKN012 
     BECMG 1609/1612 28015KT 
     TEMPO 1609/1618 28016G28KT 
     PROB30 
     TEMPO 1609/1616 7000 SHRA BKN009 SCT018CB 
     BECMG 1621/1624 25010KT
       
EISG 151930Z 24009KT 9999 SCT026 BKN035 14/12 Q1006
TAF EISG 152000Z 1521/1606 23011KT 9999 BKN025 
     TEMPO 1521/1606 -SHRA SCT018CB
       
EIWF 152030Z 26007KT 200V300 9999 SCT008 15/14 Q1010
TAF EIWF 152000Z 1521/1606 25012KT 9999 BKN020 
     TEMPO 1521/1601 5000 -RA BKN008